createdAt,value
2019-02-09T00:01:07.078Z,4.70
2019-02-09T00:03:34.839Z,4.60
2019-02-09T00:06:02.837Z,4.80
2019-02-09T00:08:30.599Z,4.40
2019-02-09T00:10:58.411Z,4.50
2019-02-09T00:13:26.238Z,4.50
2019-02-09T00:15:54.453Z,4.60
2019-02-09T00:18:22.224Z,4.60
2019-02-09T00:20:50.016Z,5.00
2019-02-09T00:23:17.819Z,4.70
2019-02-09T00:25:45.871Z,4.80
2019-02-09T00:28:13.704Z,4.90
2019-02-09T00:30:41.523Z,4.90
2019-02-09T00:33:09.696Z,5.00
2019-02-09T00:35:37.485Z,5.00
2019-02-09T00:38:05.370Z,5.10
2019-02-09T00:40:33.182Z,5.20
2019-02-09T00:43:00.997Z,5.30
2019-02-09T00:45:29.513Z,5.40
2019-02-09T00:48:02.341Z,5.50
2019-02-09T00:50:30.133Z,5.50
2019-02-09T00:52:57.949Z,5.60
2019-02-09T00:55:25.883Z,5.60
2019-02-09T00:57:53.762Z,5.70
2019-02-09T01:00:23.191Z,5.80
2019-02-09T01:02:51.075Z,5.80
2019-02-09T01:05:23.289Z,5.90
2019-02-09T01:07:56.672Z,5.90
2019-02-09T01:10:25.888Z,5.90
2019-02-09T01:12:53.766Z,5.90
2019-02-09T01:15:21.527Z,5.90
2019-02-09T01:17:49.526Z,6.00
2019-02-09T01:20:20.859Z,6.00
2019-02-09T01:22:48.651Z,6.00
2019-02-09T01:25:16.444Z,6.00
2019-02-09T01:27:44.317Z,6.00
2019-02-09T01:30:16.126Z,5.90
2019-02-09T01:32:43.949Z,5.90
2019-02-09T01:35:13.010Z,5.90
2019-02-09T01:37:40.892Z,5.80
2019-02-09T01:40:11.778Z,5.80
2019-02-09T01:42:39.733Z,5.80
2019-02-09T01:45:10.879Z,5.70
2019-02-09T01:47:44.038Z,5.60
2019-02-09T01:50:13.496Z,5.60
2019-02-09T01:52:41.317Z,5.70
2019-02-09T01:55:09.443Z,5.70
2019-02-09T01:57:37.263Z,5.80
2019-02-09T02:00:11.918Z,5.90
2019-02-09T02:02:39.709Z,6.00
2019-02-09T02:05:08.364Z,6.00
2019-02-09T02:07:36.163Z,6.10
2019-02-09T02:10:06.754Z,6.10
2019-02-09T02:12:35.685Z,6.20
2019-02-09T02:15:08.913Z,6.30
2019-02-09T02:17:36.766Z,6.30
2019-02-09T02:20:07.746Z,6.30
2019-02-09T02:22:35.585Z,6.30
2019-02-09T02:25:05.015Z,6.30
2019-02-09T02:27:32.919Z,6.40
2019-02-09T02:30:00.666Z,6.40
2019-02-09T02:32:28.517Z,6.40
2019-02-09T02:34:56.377Z,6.40
2019-02-09T02:37:24.237Z,6.40
2019-02-09T02:39:52.038Z,6.30
2019-02-09T02:42:20.086Z,6.40
2019-02-09T02:44:47.875Z,6.30
2019-02-09T02:47:15.688Z,6.60
2019-02-09T02:49:43.504Z,6.10
2019-02-09T02:52:11.290Z,6.10
2019-02-09T02:54:39.115Z,6.00
2019-02-09T02:57:06.912Z,5.90
2019-02-09T02:59:34.724Z,5.90
2019-02-09T03:02:02.645Z,5.80
2019-02-09T03:04:30.475Z,5.80
2019-02-09T03:06:58.509Z,5.80
2019-02-09T03:09:26.311Z,5.80
2019-02-09T03:11:54.151Z,5.70
2019-02-09T03:14:21.950Z,6.10
2019-02-09T03:16:49.792Z,5.70
2019-02-09T03:19:19.174Z,5.70
2019-02-09T03:21:47.124Z,5.70
2019-02-09T03:24:14.913Z,5.90
2019-02-09T03:27:18.539Z,5.70
2019-02-09T03:29:46.359Z,5.80
2019-02-09T03:32:14.174Z,5.70
2019-02-09T03:34:41.945Z,5.80
2019-02-09T03:37:34.460Z,5.80
2019-02-09T03:40:02.692Z,5.70
2019-02-09T03:42:49.958Z,5.70
2019-02-09T03:45:23.799Z,5.80
2019-02-09T03:47:51.902Z,5.70
2019-02-09T03:50:20.573Z,5.70
2019-02-09T03:52:48.433Z,5.70
2019-02-09T03:55:16.435Z,6.10
2019-02-09T03:57:44.336Z,5.90
2019-02-09T04:00:15.986Z,5.80
2019-02-09T04:02:43.930Z,5.80
2019-02-09T04:05:12.826Z,5.80
2019-02-09T04:07:40.615Z,5.80
2019-02-09T04:10:10.767Z,5.80
2019-02-09T04:12:38.604Z,5.70
2019-02-09T04:15:08.039Z,5.70
2019-02-09T04:17:35.876Z,5.70
2019-02-09T04:20:06.205Z,5.60
2019-02-09T04:22:34.012Z,5.60
2019-02-09T04:25:01.831Z,5.50
2019-02-09T04:27:29.669Z,5.50
2019-02-09T04:29:57.436Z,5.50
2019-02-09T04:32:25.226Z,5.50
2019-02-09T04:34:53.024Z,5.70
2019-02-09T04:37:20.838Z,5.50
2019-02-09T04:39:48.933Z,5.60
2019-02-09T04:42:16.757Z,5.60
2019-02-09T04:44:44.522Z,5.60
2019-02-09T04:47:17.281Z,5.70
2019-02-09T04:49:45.068Z,5.70
2019-02-09T04:52:12.873Z,5.70
2019-02-09T04:54:40.697Z,5.70
2019-02-09T04:57:08.635Z,5.70
2019-02-09T04:59:36.424Z,5.70
2019-02-09T05:02:04.368Z,5.70
2019-02-09T05:04:32.184Z,5.70
2019-02-09T05:07:05.560Z,5.70
2019-02-09T05:09:33.336Z,5.70
2019-02-09T05:12:01.164Z,5.70
2019-02-09T05:14:28.891Z,5.80
2019-02-09T05:16:56.923Z,5.80
2019-02-09T05:19:24.846Z,5.80
2019-02-09T05:21:52.673Z,5.80
2019-02-09T05:24:20.430Z,5.80
2019-02-09T05:27:07.732Z,5.80
2019-02-09T05:29:36.649Z,5.90
2019-02-09T05:32:04.578Z,6.80
2019-02-09T05:34:32.383Z,6.00
2019-02-09T05:37:00.247Z,6.00
2019-02-09T05:39:28.025Z,6.00
2019-02-09T05:41:55.851Z,6.10
2019-02-09T05:44:23.636Z,6.00
2019-02-09T05:46:51.645Z,6.70
2019-02-09T05:49:20.581Z,6.00
2019-02-09T05:51:48.825Z,6.10
2019-02-09T05:54:16.593Z,6.60
2019-02-09T05:56:44.432Z,6.20
2019-02-09T05:59:12.202Z,6.10
2019-02-09T06:01:40.002Z,6.10
2019-02-09T06:04:07.788Z,5.60
2019-02-09T06:06:35.642Z,6.20
2019-02-09T06:09:06.720Z,6.20
2019-02-09T06:11:34.571Z,6.20
2019-02-09T06:14:02.710Z,6.30
2019-02-09T06:16:35.886Z,6.30
2019-02-09T06:19:03.663Z,6.30
2019-02-09T06:21:31.462Z,6.40
2019-02-09T06:23:59.305Z,6.40
2019-02-09T06:26:27.089Z,6.40
2019-02-09T06:28:54.889Z,6.50
2019-02-09T06:31:22.670Z,6.50
2019-02-09T06:33:50.508Z,6.60
2019-02-09T06:36:18.519Z,6.60
2019-02-09T06:38:46.404Z,6.70
2019-02-09T06:41:14.161Z,6.70
2019-02-09T06:43:41.973Z,6.80
2019-02-09T06:46:09.900Z,6.90
2019-02-09T06:48:43.939Z,6.90
2019-02-09T06:51:11.714Z,6.90
2019-02-09T06:53:39.504Z,6.90
2019-02-09T06:56:07.401Z,7.00
2019-02-09T06:58:35.245Z,7.00
2019-02-09T07:01:03.056Z,7.00
2019-02-09T07:03:30.841Z,7.10
2019-02-09T07:05:58.741Z,7.20
2019-02-09T07:08:26.527Z,7.20
2019-02-09T07:10:54.355Z,7.20
2019-02-09T07:13:22.162Z,7.20
2019-02-09T07:15:50.117Z,7.20
2019-02-09T07:18:17.892Z,7.10
2019-02-09T07:20:46.106Z,7.20
2019-02-09T07:23:14.922Z,7.20
2019-02-09T07:25:42.757Z,7.20
2019-02-09T07:28:10.558Z,7.30
2019-02-09T07:30:38.319Z,7.40
2019-02-09T07:33:07.766Z,7.60
2019-02-09T07:35:35.554Z,7.60
2019-02-09T07:38:03.597Z,8.00
2019-02-09T07:40:34.584Z,8.50
2019-02-09T07:43:02.513Z,8.50
2019-02-09T07:45:30.376Z,8.30
2019-02-09T07:47:58.178Z,8.40
2019-02-09T07:50:27.549Z,9.20
2019-02-09T07:52:55.370Z,9.20
2019-02-09T07:55:23.319Z,9.00
2019-02-09T07:57:51.245Z,8.80
2019-02-09T08:00:25.387Z,8.50
2019-02-09T08:02:53.458Z,8.40
2019-02-09T08:05:23.521Z,8.80
2019-02-09T08:07:51.947Z,8.80
2019-02-09T08:10:22.516Z,8.70
2019-02-09T08:12:50.372Z,8.70
2019-02-09T08:15:23.762Z,8.50
2019-02-09T08:17:56.766Z,8.50
2019-02-09T08:20:26.143Z,8.50
2019-02-09T08:22:55.647Z,8.40
2019-02-09T08:25:25.740Z,8.40
2019-02-09T08:27:54.737Z,8.30
2019-02-09T08:30:26.612Z,8.50
2019-02-09T08:32:54.794Z,8.60
2019-02-09T08:35:23.756Z,8.60
2019-02-09T08:37:51.583Z,8.80
2019-02-09T08:40:19.663Z,8.60
2019-02-09T08:42:47.479Z,8.70
2019-02-09T08:45:17.307Z,8.80
2019-02-09T08:47:50.518Z,8.80
2019-02-09T08:50:28.292Z,8.70
2019-02-09T08:52:56.130Z,9.00
2019-02-09T08:55:23.943Z,8.90
2019-02-09T08:57:51.864Z,9.00
2019-02-09T09:00:23.052Z,9.00
2019-02-09T09:02:50.878Z,9.50
2019-02-09T09:05:18.711Z,9.20
2019-02-09T09:07:47.533Z,9.20
2019-02-09T09:10:16.466Z,9.10
2019-02-09T09:12:47.936Z,9.20
2019-02-09T09:15:23.105Z,9.30
2019-02-09T09:17:51.055Z,9.30
2019-02-09T09:20:23.070Z,9.10
2019-02-09T09:22:50.852Z,9.00
2019-02-09T09:25:18.650Z,9.10
2019-02-09T09:27:46.405Z,9.10
2019-02-09T09:30:17.769Z,8.90
2019-02-09T09:32:45.558Z,8.90
2019-02-09T09:35:13.614Z,9.00
2019-02-09T09:37:41.696Z,8.90
2019-02-09T09:40:18.326Z,9.00
2019-02-09T09:42:46.100Z,8.80
2019-02-09T09:45:17.718Z,8.70
2019-02-09T09:47:45.526Z,8.70
2019-02-09T09:50:15.424Z,8.40
2019-02-09T09:52:43.233Z,8.50
2019-02-09T09:55:11.739Z,8.60
2019-02-09T09:57:44.549Z,8.50
2019-02-09T10:00:14.370Z,8.50
2019-02-09T10:02:43.171Z,8.70
2019-02-09T10:05:11.144Z,9.10
2019-02-09T10:07:38.944Z,9.30
2019-02-09T10:10:09.895Z,9.40
2019-02-09T10:12:37.672Z,9.60
2019-02-09T10:15:08.438Z,9.60
2019-02-09T10:17:36.464Z,9.70
2019-02-09T10:20:07.640Z,9.70
2019-02-09T10:22:35.432Z,9.50
2019-02-09T10:25:03.762Z,9.70
2019-02-09T10:27:31.607Z,9.80
2019-02-09T10:29:59.499Z,9.90
2019-02-09T10:32:27.309Z,9.60
2019-02-09T10:34:55.143Z,9.50
2019-02-09T10:37:28.123Z,9.40
2019-02-09T10:39:55.966Z,9.20
2019-02-09T10:42:23.750Z,9.10
2019-02-09T10:44:52.613Z,9.20
2019-02-09T10:47:20.434Z,9.20
2019-02-09T10:49:48.248Z,9.00
2019-02-09T10:52:16.092Z,8.80
2019-02-09T10:54:43.935Z,8.80
2019-02-09T10:57:43.926Z,8.90
2019-02-09T11:00:19.000Z,8.80
2019-02-09T11:02:52.080Z,9.10
2019-02-09T11:05:18.103Z,9.20
2019-02-09T11:07:46.152Z,9.40
2019-02-09T11:10:16.453Z,9.70
2019-02-09T11:12:45.866Z,10.00
2019-02-09T11:15:19.715Z,10.20
2019-02-09T11:17:47.628Z,10.30
2019-02-09T11:20:17.635Z,10.50
2019-02-09T11:22:45.829Z,10.30
2019-02-09T11:25:14.734Z,10.60
2019-02-09T11:27:42.585Z,10.30
2019-02-09T11:30:14.941Z,10.00
2019-02-09T11:32:42.718Z,9.70
2019-02-09T11:35:14.064Z,9.90
2019-02-09T11:37:42.158Z,9.80
2019-02-09T11:40:10.715Z,9.70
2019-02-09T11:42:38.582Z,9.50
2019-02-09T11:45:10.392Z,9.30
2019-02-09T11:47:38.240Z,9.10
2019-02-09T11:50:07.771Z,9.10
2019-02-09T11:52:35.579Z,9.10
2019-02-09T11:55:04.814Z,9.10
2019-02-09T11:57:37.718Z,9.30
2019-02-09T12:00:16.137Z,9.40
2019-02-09T12:02:43.944Z,9.20
2019-02-09T12:05:14.157Z,9.40
2019-02-09T12:07:42.298Z,9.50
2019-02-09T12:10:11.103Z,9.50
2019-02-09T12:12:38.898Z,9.30
2019-02-09T12:15:11.212Z,9.40
2019-02-09T12:17:39.095Z,9.40
2019-02-09T12:20:10.774Z,10.30
2019-02-09T12:22:38.640Z,11.30
2019-02-09T12:25:09.545Z,12.50
2019-02-09T12:27:37.349Z,13.60
2019-02-09T12:30:08.446Z,14.10
2019-02-09T12:32:36.269Z,14.50
2019-02-09T12:35:05.181Z,13.80
2019-02-09T12:37:33.005Z,13.00
2019-02-09T12:40:00.768Z,12.50
2019-02-09T12:42:28.548Z,11.70
2019-02-09T12:44:56.373Z,11.50
2019-02-09T12:47:24.248Z,11.30
2019-02-09T12:49:52.050Z,10.70
2019-02-09T12:52:19.833Z,10.30
2019-02-09T12:54:47.650Z,10.30
2019-02-09T12:57:20.623Z,10.40
2019-02-09T12:59:48.376Z,10.30
2019-02-09T13:02:16.151Z,10.80
2019-02-09T13:04:43.930Z,10.70
2019-02-09T13:07:16.914Z,10.80
2019-02-09T13:09:44.704Z,10.60
2019-02-09T13:12:12.530Z,10.50
2019-02-09T13:14:40.401Z,10.40
2019-02-09T13:17:13.516Z,10.40
2019-02-09T13:19:41.322Z,10.50
2019-02-09T13:22:09.087Z,10.80
2019-02-09T13:24:36.882Z,10.50
2019-02-09T13:27:04.700Z,10.30
2019-02-09T13:29:32.488Z,10.30
2019-02-09T13:32:00.273Z,10.10
2019-02-09T13:34:28.096Z,10.00
2019-02-09T13:37:00.882Z,9.70
2019-02-09T13:39:28.690Z,9.50
2019-02-09T13:41:59.386Z,9.40
2019-02-09T13:44:27.294Z,9.40
2019-02-09T13:46:55.080Z,9.10
2019-02-09T13:49:22.943Z,9.10
2019-02-09T13:51:50.707Z,9.20
2019-02-09T13:54:18.690Z,9.60
2019-02-09T13:56:50.826Z,9.70
2019-02-09T13:59:18.639Z,10.00
2019-02-09T14:01:46.541Z,10.30
2019-02-09T14:04:14.328Z,10.60
2019-02-09T14:06:42.320Z,10.50
2019-02-09T14:09:10.172Z,10.50
2019-02-09T14:11:37.978Z,10.60
2019-02-09T14:14:05.762Z,11.00
2019-02-09T14:17:04.186Z,11.10
2019-02-09T14:19:31.993Z,11.40
2019-02-09T14:21:59.794Z,11.50
2019-02-09T14:24:27.577Z,11.20
2019-02-09T14:26:55.510Z,10.80
2019-02-09T14:29:23.356Z,11.10
2019-02-09T14:31:51.198Z,11.60
2019-02-09T14:34:19.015Z,11.40
2019-02-09T14:36:46.884Z,11.50
2019-02-09T14:39:14.773Z,11.70
2019-02-09T14:41:42.588Z,11.80
2019-02-09T14:44:10.421Z,11.70
2019-02-09T14:46:39.929Z,11.20
2019-02-09T14:49:07.829Z,11.10
2019-02-09T14:51:35.698Z,10.70
2019-02-09T14:54:03.955Z,10.80
2019-02-09T14:56:31.780Z,10.70
2019-02-09T14:58:59.566Z,10.60
2019-02-09T15:01:27.425Z,10.60
2019-02-09T15:04:02.468Z,10.30
2019-02-09T15:06:25.249Z,10.40
2019-02-09T15:08:53.060Z,10.10
2019-02-09T15:11:20.873Z,10.10
2019-02-09T15:13:48.711Z,10.10
2019-02-09T15:16:30.094Z,9.70
2019-02-09T15:18:57.967Z,9.70
2019-02-09T15:21:26.244Z,9.80
2019-02-09T15:23:53.997Z,9.50
2019-02-09T15:26:21.865Z,9.50
2019-02-09T15:28:49.734Z,9.40
2019-02-09T15:31:17.714Z,9.20
2019-02-09T15:33:45.527Z,9.10
2019-02-09T15:36:13.378Z,9.10
2019-02-09T15:38:41.237Z,9.40
2019-02-09T15:41:09.081Z,8.90
2019-02-09T15:43:36.866Z,8.80
2019-02-09T15:46:05.363Z,8.80
2019-02-09T15:48:33.245Z,8.90
2019-02-09T15:51:01.084Z,8.80
2019-02-09T15:53:29.983Z,8.70
2019-02-09T15:55:57.819Z,8.70
2019-02-09T15:58:25.694Z,8.60
2019-02-09T16:00:54.447Z,8.70
2019-02-09T16:03:22.236Z,8.60
2019-02-09T16:05:50.499Z,8.60
2019-02-09T16:08:18.789Z,8.60
2019-02-09T16:10:47.906Z,8.50
2019-02-09T16:13:15.754Z,8.50
2019-02-09T16:15:43.600Z,8.50
2019-02-09T16:18:11.521Z,8.50
2019-02-09T16:20:39.401Z,8.50
2019-02-09T16:23:07.271Z,8.50
2019-02-09T16:25:35.191Z,8.40
2019-02-09T16:28:03.174Z,8.30
2019-02-09T16:30:31.006Z,8.30
2019-02-09T16:32:58.911Z,8.20
2019-02-09T16:35:26.875Z,8.10
2019-02-09T16:37:54.982Z,8.20
2019-02-09T16:40:25.479Z,8.10
2019-02-09T16:42:53.419Z,8.10
2019-02-09T16:45:31.501Z,8.20
2019-02-09T16:47:59.788Z,8.20
2019-02-09T16:50:27.947Z,8.20
2019-02-09T16:52:57.135Z,8.20
2019-02-09T16:55:28.101Z,8.10
2019-02-09T16:57:56.062Z,7.80
2019-02-09T17:00:32.720Z,8.20
2019-02-09T17:03:00.717Z,8.10
2019-02-09T17:05:28.514Z,8.10
2019-02-09T17:07:56.334Z,8.00
2019-02-09T17:10:24.160Z,8.00
2019-02-09T17:12:52.039Z,8.00
2019-02-09T17:15:21.710Z,7.90
2019-02-09T17:17:50.155Z,7.90
2019-02-09T17:20:19.206Z,7.90
2019-02-09T17:22:47.650Z,6.50
2019-02-09T17:25:15.718Z,7.90
2019-02-09T17:27:45.518Z,8.40
2019-02-09T17:30:25.776Z,8.00
2019-02-09T17:32:53.831Z,7.90
2019-02-09T17:35:21.670Z,7.90
2019-02-09T17:37:54.877Z,7.80
2019-02-09T17:40:26.522Z,7.80
2019-02-09T17:42:54.408Z,7.80
2019-02-09T17:45:26.058Z,7.80
2019-02-09T17:47:53.936Z,7.80
2019-02-09T17:50:21.846Z,7.80
2019-02-09T17:52:49.847Z,7.80
2019-02-09T17:55:18.609Z,7.80
2019-02-09T17:57:47.139Z,7.80
2019-02-09T18:00:18.948Z,7.80
2019-02-09T18:02:46.779Z,7.80
2019-02-09T18:05:14.805Z,7.70
2019-02-09T18:07:47.923Z,7.70
2019-02-09T18:10:16.288Z,7.60
2019-02-09T18:12:44.164Z,7.60
2019-02-09T18:15:14.451Z,7.60
2019-02-09T18:17:52.539Z,7.50
2019-02-09T18:20:20.478Z,7.50
2019-02-09T18:22:48.303Z,7.90
2019-02-09T18:25:17.119Z,7.50
2019-02-09T18:27:44.944Z,7.60
2019-02-09T18:30:16.828Z,7.60
2019-02-09T18:32:44.677Z,7.60
2019-02-09T18:35:12.562Z,7.70
2019-02-09T18:37:40.415Z,7.70
2019-02-09T18:40:11.772Z,7.70
2019-02-09T18:42:39.603Z,7.80
2019-02-09T18:45:11.023Z,7.80
2019-02-09T18:47:39.664Z,8.00
2019-02-09T18:50:10.636Z,7.90
2019-02-09T18:52:38.481Z,8.00
2019-02-09T18:55:11.992Z,8.00
2019-02-09T18:57:40.039Z,8.00
2019-02-09T19:00:10.011Z,8.00
2019-02-09T19:02:38.701Z,8.00
2019-02-09T19:05:07.682Z,8.00
2019-02-09T19:07:35.899Z,8.00
2019-02-09T19:10:32.926Z,8.00
2019-02-09T19:13:18.229Z,8.00
2019-02-09T19:15:46.748Z,8.10
2019-02-09T19:18:14.552Z,8.10
2019-02-09T19:20:47.028Z,8.00
2019-02-09T19:23:14.843Z,8.00
2019-02-09T19:25:45.593Z,8.00
2019-02-09T19:28:18.751Z,8.00
2019-02-09T19:30:46.644Z,8.00
2019-02-09T19:33:15.679Z,8.00
2019-02-09T19:35:44.246Z,7.90
2019-02-09T19:38:14.205Z,7.90
2019-02-09T19:40:41.985Z,8.00
2019-02-09T19:43:09.831Z,8.00
2019-02-09T19:45:39.016Z,8.00
2019-02-09T19:48:16.072Z,8.10
2019-02-09T19:50:44.166Z,8.10
2019-02-09T19:53:12.254Z,8.10
2019-02-09T19:55:40.121Z,8.20
2019-02-09T19:58:08.088Z,8.20
2019-02-09T20:00:40.172Z,8.30
2019-02-09T20:03:08.542Z,8.30
2019-02-09T20:05:37.832Z,8.20
2019-02-09T20:08:07.455Z,8.30
2019-02-09T20:10:37.159Z,8.30
2019-02-09T20:13:09.149Z,8.20
2019-02-09T20:15:38.788Z,8.10
2019-02-09T20:18:07.807Z,8.10
2019-02-09T20:20:36.123Z,8.10
2019-02-09T20:23:05.309Z,8.00
2019-02-09T20:25:33.584Z,8.00
2019-02-09T20:28:01.628Z,8.00
2019-02-09T20:30:32.445Z,8.00
2019-02-09T20:33:00.699Z,8.00
2019-02-09T20:35:29.877Z,8.00
2019-02-09T20:37:58.116Z,8.00
2019-02-09T20:40:32.549Z,8.00
2019-02-09T20:43:02.869Z,8.10
2019-02-09T20:45:31.379Z,8.10
2019-02-09T20:48:01.172Z,8.10
2019-02-09T20:50:29.927Z,8.00
2019-02-09T20:52:57.785Z,8.20
2019-02-09T20:55:25.655Z,8.20
2019-02-09T20:57:53.764Z,8.20
2019-02-09T21:00:22.859Z,8.30
2019-02-09T21:02:50.684Z,8.30
2019-02-09T21:05:19.938Z,8.30
2019-02-09T21:07:53.003Z,8.30
2019-02-09T21:10:23.902Z,8.30
2019-02-09T21:12:51.919Z,8.30
2019-02-09T21:15:21.752Z,8.20
2019-02-09T21:17:49.704Z,8.10
2019-02-09T21:20:17.514Z,8.10
2019-02-09T21:22:45.375Z,8.40
2019-02-09T21:25:28.129Z,8.00
2019-02-09T21:27:56.092Z,8.00
2019-02-09T21:30:26.554Z,8.00
2019-02-09T21:32:54.438Z,8.00
2019-02-09T21:35:22.253Z,8.00
2019-02-09T21:37:50.172Z,7.90
2019-02-09T21:40:20.217Z,7.90
2019-02-09T21:42:48.159Z,7.90
2019-02-09T21:45:17.402Z,7.90
2019-02-09T21:47:45.330Z,7.80
2019-02-09T21:50:23.020Z,7.80
2019-02-09T21:52:50.883Z,7.70
2019-02-09T21:55:18.892Z,7.80
2019-02-09T21:57:46.878Z,7.70
2019-02-09T22:00:30.225Z,7.70
2019-02-09T22:02:58.041Z,7.70
2019-02-09T22:05:25.890Z,7.70
2019-02-09T22:07:53.792Z,7.70
2019-02-09T22:10:29.024Z,7.80
2019-02-09T22:12:51.709Z,7.80
2019-02-09T22:15:21.786Z,7.90
2019-02-09T22:17:49.808Z,7.90
2019-02-09T22:20:17.660Z,8.00
2019-02-09T22:22:45.591Z,8.00
2019-02-09T22:25:16.230Z,8.00
2019-02-09T22:27:45.257Z,8.10
2019-02-09T22:30:16.451Z,8.10
2019-02-09T22:32:44.508Z,8.10
2019-02-09T22:35:12.418Z,8.10
2019-02-09T22:37:55.374Z,8.00
2019-02-09T22:40:29.135Z,8.00
2019-02-09T22:42:56.963Z,8.00
2019-02-09T22:45:25.990Z,7.90
2019-02-09T22:47:54.240Z,7.90
2019-02-09T22:50:30.517Z,7.90
2019-02-09T22:52:58.585Z,7.90
2019-02-09T22:55:27.414Z,7.80
2019-02-09T22:58:00.437Z,7.70
2019-02-09T23:01:24.192Z,7.60
2019-02-09T23:04:34.397Z,7.50
2019-02-09T23:07:12.615Z,7.40
2019-02-09T23:09:40.411Z,7.30
2019-02-09T23:12:09.416Z,7.20
2019-02-09T23:14:37.273Z,7.20
2019-02-09T23:17:05.325Z,7.20
2019-02-09T23:19:33.114Z,7.30
2019-02-09T23:22:01.009Z,7.30
2019-02-09T23:24:28.792Z,7.40
2019-02-09T23:26:56.635Z,7.40
2019-02-09T23:29:24.433Z,7.40
2019-02-09T23:31:52.204Z,7.40
2019-02-09T23:34:19.994Z,7.30
2019-02-09T23:36:47.765Z,7.20
2019-02-09T23:39:15.639Z,7.20
2019-02-09T23:41:43.452Z,7.20
2019-02-09T23:44:11.332Z,7.10
2019-02-09T23:46:39.272Z,7.20
2019-02-09T23:49:07.212Z,7.00
2019-02-09T23:51:35.177Z,7.10
2019-02-09T23:54:02.965Z,7.10
2019-02-09T23:56:45.923Z,7.00
2019-02-09T23:59:13.698Z,7.00
